createdAt,value
2023-03-20T00:01:38.295Z,97539.38
2023-03-20T00:04:04.892Z,97544.69
2023-03-20T00:06:32.341Z,97546.69
2023-03-20T00:08:58.796Z,97552.47
2023-03-20T00:11:34.775Z,97554.84
2023-03-20T00:14:02.991Z,97549.78
2023-03-20T00:16:40.335Z,97552.69
2023-03-20T00:19:08.606Z,97546.50
2023-03-20T00:21:35.176Z,97546.81
2023-03-20T00:24:01.904Z,97533.53
2023-03-20T00:26:33.562Z,97537.88
2023-03-20T00:29:01.196Z,97545.41
2023-03-20T00:31:30.820Z,97548.63
2023-03-20T00:33:58.610Z,97541.53
2023-03-20T00:36:25.457Z,97539.88
2023-03-20T00:38:52.177Z,97537.56
2023-03-20T00:41:21.865Z,97526.38
2023-03-20T00:43:49.676Z,97530.94
2023-03-20T00:46:16.387Z,97533.91
2023-03-20T00:48:43.604Z,97527.03
2023-03-20T00:51:10.032Z,97529.25
2023-03-20T00:53:37.100Z,97528.03
2023-03-20T00:56:03.849Z,97533.09
2023-03-20T00:58:30.342Z,97527.84
2023-03-20T01:00:57.151Z,97530.28
2023-03-20T01:03:26.066Z,97528.66
2023-03-20T01:05:52.700Z,97520.66
2023-03-20T01:08:23.800Z,97518.63
2023-03-20T01:10:51.456Z,97520.69
2023-03-20T01:13:21.362Z,97531.16
2023-03-20T01:15:48.280Z,97514.22
2023-03-20T01:18:15.963Z,97518.41
2023-03-20T01:20:42.903Z,97522.06
2023-03-20T01:23:10.017Z,97521.75
2023-03-20T01:25:36.942Z,97522.88
2023-03-20T01:28:07.501Z,97515.84
2023-03-20T01:30:34.269Z,97512.63
2023-03-20T01:33:01.640Z,97511.31
2023-03-20T01:35:29.649Z,97507.19
2023-03-20T01:38:00.807Z,97509.63
2023-03-20T01:40:32.105Z,97509.19
2023-03-20T01:42:59.019Z,97507.75
2023-03-20T01:45:30.216Z,97512.22
2023-03-20T01:47:58.918Z,97515.97
2023-03-20T01:50:27.132Z,97521.44
2023-03-20T01:53:04.615Z,97517.94
2023-03-20T01:55:32.668Z,97524.28
2023-03-20T01:58:05.209Z,97521.81
2023-03-20T02:00:33.125Z,97530.69
2023-03-20T02:03:00.415Z,97520.59
2023-03-20T02:06:01.892Z,97528.13
2023-03-20T02:08:52.895Z,97532.13
2023-03-20T02:11:22.501Z,97539.59
2023-03-20T02:13:51.007Z,97539.25
2023-03-20T02:16:18.167Z,97537.03
2023-03-20T02:18:58.379Z,97526.25
2023-03-20T02:21:31.160Z,97527.00
2023-03-20T02:24:04.717Z,97527.06
2023-03-20T02:26:48.038Z,97528.44
2023-03-20T02:29:14.617Z,97523.94
2023-03-20T02:31:41.162Z,97532.06
2023-03-20T02:34:26.602Z,97524.09
2023-03-20T02:36:53.187Z,97517.97
2023-03-20T02:39:34.998Z,97535.88
2023-03-20T02:42:14.255Z,97527.97
2023-03-20T02:45:04.589Z,97526.19
2023-03-20T02:47:34.871Z,97533.25
2023-03-20T02:50:18.141Z,97539.13
2023-03-20T02:52:47.756Z,97531.41
2023-03-20T02:55:14.509Z,97536.91
2023-03-20T02:57:56.443Z,97530.13
2023-03-20T03:00:38.464Z,97532.22
2023-03-20T03:03:06.581Z,97528.94
2023-03-20T03:05:49.769Z,97532.88
2023-03-20T03:08:18.529Z,97539.50
2023-03-20T03:10:46.976Z,97539.25
2023-03-20T03:13:15.383Z,97534.25
2023-03-20T03:15:45.306Z,97536.72
2023-03-20T03:18:14.413Z,97541.63
2023-03-20T03:20:43.124Z,97539.38
2023-03-20T03:23:14.873Z,97543.75
2023-03-20T03:25:41.997Z,97540.41
2023-03-20T03:28:21.602Z,97538.31
2023-03-20T03:30:50.117Z,97543.81
2023-03-20T03:33:21.340Z,97538.72
2023-03-20T03:35:49.859Z,97541.31
2023-03-20T03:38:29.046Z,97533.72
2023-03-20T03:41:23.867Z,97531.38
2023-03-20T03:43:53.967Z,97539.53
2023-03-20T03:46:26.820Z,97555.69
2023-03-20T03:48:56.178Z,97550.97
2023-03-20T03:51:25.083Z,97554.81
2023-03-20T03:54:04.081Z,97560.25
2023-03-20T03:56:31.677Z,97559.09
2023-03-20T03:59:04.297Z,97560.78
2023-03-20T04:01:35.456Z,97568.47
2023-03-20T04:04:05.046Z,97564.84
2023-03-20T04:06:32.227Z,97570.34
2023-03-20T04:08:58.859Z,97570.81
2023-03-20T04:11:26.198Z,97575.19
2023-03-20T04:13:52.882Z,97570.50
2023-03-20T04:16:22.960Z,97575.41
2023-03-20T04:18:50.530Z,97581.81
2023-03-20T04:21:17.989Z,97577.81
2023-03-20T04:23:44.515Z,97584.97
2023-03-20T04:26:11.309Z,97586.13
2023-03-20T04:28:38.509Z,97581.03
2023-03-20T04:31:25.211Z,97585.81
2023-03-20T04:34:10.768Z,97584.22
2023-03-20T04:36:52.459Z,97579.88
2023-03-20T04:39:20.491Z,97586.19
2023-03-20T04:41:47.305Z,97579.63
2023-03-20T04:44:13.933Z,97582.16
2023-03-20T04:46:43.183Z,97583.72
2023-03-20T04:49:14.986Z,97580.22
2023-03-20T04:51:41.954Z,97586.66
2023-03-20T04:54:10.834Z,97597.16
2023-03-20T04:56:37.375Z,97590.09
2023-03-20T04:59:14.072Z,97592.34
2023-03-20T05:01:40.813Z,97589.81
2023-03-20T05:04:08.062Z,97588.88
2023-03-20T05:06:35.187Z,97595.88
2023-03-20T05:09:02.146Z,97594.25
2023-03-20T05:11:30.622Z,97598.25
2023-03-20T05:13:59.816Z,97601.25
2023-03-20T05:16:37.782Z,97602.66
2023-03-20T05:19:18.896Z,97616.50
2023-03-20T05:21:48.328Z,97609.28
2023-03-20T05:24:35.244Z,97614.63
2023-03-20T05:27:27.880Z,97615.19
2023-03-20T05:30:23.356Z,97622.50
2023-03-20T05:33:08.602Z,97628.03
2023-03-20T05:35:52.544Z,97626.78
2023-03-20T05:38:32.819Z,97631.22
2023-03-20T05:41:22.718Z,97620.56
2023-03-20T05:44:11.145Z,97631.34
2023-03-20T05:46:56.600Z,97630.97
2023-03-20T05:49:41.841Z,97635.34
2023-03-20T05:52:26.788Z,97638.97
2023-03-20T05:55:28.392Z,97641.47
2023-03-20T05:58:12.154Z,97642.44
2023-03-20T06:00:58.004Z,97644.94
2023-03-20T06:03:44.770Z,97637.41
2023-03-20T06:06:20.084Z,97638.03
2023-03-20T06:08:49.203Z,97638.84
2023-03-20T06:11:16.400Z,97648.16
2023-03-20T06:13:43.313Z,97648.31
2023-03-20T06:16:11.051Z,97645.63
2023-03-20T06:18:39.172Z,97653.84
2023-03-20T06:21:07.726Z,97643.66
2023-03-20T06:23:34.306Z,97647.03
2023-03-20T06:26:02.161Z,97654.09
2023-03-20T06:28:32.391Z,97648.72
2023-03-20T06:31:04.698Z,97653.53
2023-03-20T06:33:31.380Z,97657.75
2023-03-20T06:35:59.713Z,97651.06
2023-03-20T06:38:28.826Z,97656.66
2023-03-20T06:40:55.544Z,97653.38
2023-03-20T06:43:22.809Z,97656.63
2023-03-20T06:45:52.297Z,97654.47
2023-03-20T06:48:24.770Z,97654.75
2023-03-20T06:50:52.831Z,97654.88
2023-03-20T06:53:22.340Z,97657.13
2023-03-20T06:56:01.725Z,97663.53
2023-03-20T06:58:28.814Z,97653.38
2023-03-20T07:00:55.355Z,97657.25
2023-03-20T07:03:22.372Z,97656.78
2023-03-20T07:05:50.943Z,97659.06
2023-03-20T07:08:18.517Z,97658.22
2023-03-20T07:10:45.040Z,97664.28
2023-03-20T07:13:12.882Z,97661.41
2023-03-20T07:15:50.648Z,97662.63
2023-03-20T07:18:25.546Z,97656.47
2023-03-20T07:20:52.921Z,97666.13
2023-03-20T07:23:20.048Z,97661.44
2023-03-20T07:25:47.445Z,97669.81
2023-03-20T07:28:17.003Z,97669.69
2023-03-20T07:30:49.823Z,97674.22
2023-03-20T07:33:18.098Z,97671.38
2023-03-20T07:35:45.309Z,97680.09
2023-03-20T07:38:12.030Z,97675.22
2023-03-20T07:40:49.082Z,97677.06
2023-03-20T07:43:16.705Z,97684.94
2023-03-20T07:46:02.230Z,97691.63
2023-03-20T07:48:28.749Z,97691.41
2023-03-20T07:50:55.433Z,97686.53
2023-03-20T07:53:22.058Z,97689.38
2023-03-20T07:55:48.897Z,97695.31
2023-03-20T07:58:15.598Z,97689.25
2023-03-20T08:00:42.225Z,97693.97
2023-03-20T08:03:09.450Z,97700.22
2023-03-20T08:05:36.346Z,97690.69
2023-03-20T08:08:03.275Z,97684.19
2023-03-20T08:10:29.772Z,97678.94
2023-03-20T08:12:56.333Z,97677.91
2023-03-20T08:15:22.821Z,97674.91
2023-03-20T08:17:49.325Z,97674.78
2023-03-20T08:20:16.376Z,97687.25
2023-03-20T08:22:44.259Z,97679.63
2023-03-20T08:25:11.005Z,97690.00
2023-03-20T08:27:38.510Z,97685.47
2023-03-20T08:30:05.225Z,97686.34
2023-03-20T08:32:31.984Z,97695.84
2023-03-20T08:34:58.488Z,97693.38
2023-03-20T08:37:24.980Z,97696.75
2023-03-20T08:39:51.521Z,97690.66
2023-03-20T08:42:17.995Z,97691.22
2023-03-20T08:44:45.160Z,97699.66
2023-03-20T08:47:12.225Z,97704.06
2023-03-20T08:49:38.724Z,97693.69
2023-03-20T08:52:05.828Z,97702.19
2023-03-20T08:54:33.779Z,97698.97
2023-03-20T08:57:00.266Z,97700.00
2023-03-20T08:59:26.754Z,97699.69
2023-03-20T09:01:53.247Z,97704.00
2023-03-20T09:04:19.746Z,97700.50
2023-03-20T09:06:46.311Z,97706.03
2023-03-20T09:09:15.791Z,97708.66
2023-03-20T09:11:42.359Z,97710.94
2023-03-20T09:14:08.974Z,97713.09
2023-03-20T09:16:35.511Z,97711.22
2023-03-20T09:19:02.072Z,97709.53
2023-03-20T09:21:28.550Z,97713.28
2023-03-20T09:23:54.981Z,97717.13
2023-03-20T09:26:21.537Z,97709.81
2023-03-20T09:28:48.024Z,97712.88
2023-03-20T09:31:14.594Z,97701.31
2023-03-20T09:33:41.248Z,97708.03
2023-03-20T09:36:11.504Z,97705.84
2023-03-20T09:38:38.155Z,97701.13
2023-03-20T09:41:05.114Z,97700.38
2023-03-20T09:43:50.520Z,97698.97
2023-03-20T09:46:31.720Z,97692.59
2023-03-20T09:48:58.174Z,97698.16
2023-03-20T09:51:31.898Z,97688.00
2023-03-20T09:54:07.782Z,97694.16
2023-03-20T09:56:34.236Z,97681.44
2023-03-20T09:59:02.212Z,97695.16
2023-03-20T10:01:51.996Z,97682.75
2023-03-20T10:04:19.128Z,97686.19
2023-03-20T10:06:46.641Z,97681.75
2023-03-20T10:09:24.776Z,97681.72
2023-03-20T10:11:57.386Z,97680.13
2023-03-20T10:14:37.395Z,97688.13
2023-03-20T10:17:19.015Z,97688.00
2023-03-20T10:19:45.550Z,97691.75
2023-03-20T10:22:11.983Z,97685.53
2023-03-20T10:24:49.175Z,97677.63
2023-03-20T10:27:28.229Z,97684.53
2023-03-20T10:30:03.579Z,97689.75
2023-03-20T10:32:36.257Z,97683.66
2023-03-20T10:35:08.944Z,97686.03
2023-03-20T10:37:53.054Z,97682.78
2023-03-20T10:40:26.811Z,97683.38
2023-03-20T10:42:55.050Z,97677.72
2023-03-20T10:45:28.290Z,97686.16
2023-03-20T10:47:56.061Z,97681.31
2023-03-20T10:50:32.023Z,97676.97
2023-03-20T10:53:00.190Z,97680.25
2023-03-20T10:55:30.848Z,97671.28
2023-03-20T10:58:14.192Z,97668.44
2023-03-20T11:00:40.895Z,97668.28
2023-03-20T11:03:08.217Z,97675.78
2023-03-20T11:05:36.959Z,97665.88
2023-03-20T11:08:07.757Z,97661.47
2023-03-20T11:10:36.296Z,97660.03
2023-03-20T11:13:16.933Z,97662.75
2023-03-20T11:15:43.463Z,97662.97
2023-03-20T11:18:14.090Z,97660.16
2023-03-20T11:20:50.510Z,97658.25
2023-03-20T11:23:19.529Z,97652.19
2023-03-20T11:25:49.127Z,97656.88
2023-03-20T11:28:26.367Z,97669.41
2023-03-20T11:31:04.637Z,97669.22
2023-03-20T11:33:32.492Z,97659.84
2023-03-20T11:35:59.378Z,97656.47
2023-03-20T11:38:25.996Z,97658.44
2023-03-20T11:40:53.695Z,97658.34
2023-03-20T11:43:21.892Z,97654.06
2023-03-20T11:45:50.919Z,97662.31
2023-03-20T11:48:24.999Z,97660.06
2023-03-20T11:50:54.437Z,97653.59
2023-03-20T11:53:23.260Z,97653.50
2023-03-20T11:56:10.950Z,97649.13
2023-03-20T11:58:40.130Z,97651.03
2023-03-20T12:01:09.069Z,97646.72
2023-03-20T12:03:45.121Z,97653.19
2023-03-20T12:06:35.014Z,97644.41
2023-03-20T12:09:04.496Z,97636.06
2023-03-20T12:11:52.558Z,97646.38
2023-03-20T12:14:23.831Z,97637.09
2023-03-20T12:16:53.175Z,97636.06
2023-03-20T12:19:25.921Z,97623.50
2023-03-20T12:21:59.580Z,97622.41
2023-03-20T12:24:44.510Z,97618.25
2023-03-20T12:27:21.502Z,97618.50
2023-03-20T12:29:55.859Z,97615.03
2023-03-20T12:32:22.404Z,97611.56
2023-03-20T12:35:02.446Z,97616.31
2023-03-20T12:37:28.966Z,97605.31
2023-03-20T12:39:57.095Z,97608.81
2023-03-20T12:42:42.772Z,97601.94
2023-03-20T12:45:16.031Z,97605.84
2023-03-20T12:47:42.724Z,97598.25
2023-03-20T12:50:18.439Z,97598.38
2023-03-20T12:52:48.099Z,97600.19
2023-03-20T12:55:26.166Z,97597.97
2023-03-20T12:58:06.245Z,97587.63
2023-03-20T13:00:36.039Z,97588.88
2023-03-20T13:03:22.963Z,97593.22
2023-03-20T13:05:52.221Z,97591.03
2023-03-20T13:08:32.489Z,97585.91
2023-03-20T13:11:15.967Z,97584.03
2023-03-20T13:13:52.071Z,97579.13
2023-03-20T13:16:31.622Z,97586.41
2023-03-20T13:19:13.644Z,97585.13
2023-03-20T13:21:40.236Z,97583.19
2023-03-20T13:24:06.848Z,97582.63
2023-03-20T13:26:38.896Z,97578.34
2023-03-20T13:29:41.011Z,97577.69
2023-03-20T13:32:10.441Z,97575.00
2023-03-20T13:35:06.445Z,97574.13
2023-03-20T13:37:36.073Z,97575.38
2023-03-20T13:40:06.161Z,97573.22
2023-03-20T13:42:36.948Z,97574.44
2023-03-20T13:45:07.129Z,97568.09
2023-03-20T13:47:36.209Z,97566.53
2023-03-20T13:50:02.629Z,97555.31
2023-03-20T13:52:32.166Z,97557.50
2023-03-20T13:55:17.140Z,97562.84
2023-03-20T13:57:50.233Z,97552.97
2023-03-20T14:00:22.979Z,97554.25
2023-03-20T14:02:52.683Z,97548.41
2023-03-20T14:05:22.981Z,97548.88
2023-03-20T14:07:55.825Z,97549.03
2023-03-20T14:10:22.418Z,97550.94
2023-03-20T14:12:50.249Z,97551.59
2023-03-20T14:15:19.648Z,97552.03
2023-03-20T14:17:50.975Z,97551.03
2023-03-20T14:20:27.857Z,97542.28
2023-03-20T14:22:56.934Z,97542.34
2023-03-20T14:25:24.630Z,97547.75
2023-03-20T14:28:06.699Z,97544.41
2023-03-20T14:30:36.558Z,97546.16
2023-03-20T14:33:15.976Z,97544.47
2023-03-20T14:35:45.271Z,97540.03
2023-03-20T14:38:20.429Z,97537.66
2023-03-20T14:40:52.366Z,97534.13
2023-03-20T14:43:37.597Z,97534.69
2023-03-20T14:46:09.074Z,97527.94
2023-03-20T14:48:41.685Z,97527.44
2023-03-20T14:51:08.201Z,97524.78
2023-03-20T14:53:34.936Z,97529.28
2023-03-20T14:56:02.098Z,97527.81
2023-03-20T14:58:41.469Z,97530.16
2023-03-20T15:01:09.603Z,97531.69
2023-03-20T15:03:39.519Z,97532.38
2023-03-20T15:06:07.596Z,97537.06
2023-03-20T15:08:36.074Z,97535.84
2023-03-20T15:11:06.901Z,97533.72
2023-03-20T15:13:34.196Z,97533.59
2023-03-20T15:16:11.449Z,97530.44
2023-03-20T15:18:43.088Z,97524.94
2023-03-20T15:21:32.694Z,97524.31
2023-03-20T15:23:59.262Z,97524.50
2023-03-20T15:26:26.681Z,97514.22
2023-03-20T15:28:59.680Z,97522.22
2023-03-20T15:31:32.679Z,97525.72
2023-03-20T15:34:00.666Z,97514.28
2023-03-20T15:36:28.697Z,97525.91
2023-03-20T15:39:03.986Z,97532.84
2023-03-20T15:41:34.004Z,97526.09
2023-03-20T15:44:15.906Z,97528.47
2023-03-20T15:46:50.783Z,97527.84
2023-03-20T15:49:18.507Z,97522.22
2023-03-20T15:51:45.078Z,97526.19
2023-03-20T15:54:13.977Z,97523.53
2023-03-20T15:56:45.531Z,97527.78
2023-03-20T15:59:14.589Z,97535.00
2023-03-20T16:01:41.213Z,97525.00
2023-03-20T16:04:09.953Z,97527.34
2023-03-20T16:06:44.590Z,97532.69
2023-03-20T16:09:14.054Z,97541.03
2023-03-20T16:11:42.650Z,97535.19
2023-03-20T16:14:14.707Z,97542.69
2023-03-20T16:16:41.442Z,97539.94
2023-03-20T16:19:08.360Z,97545.97
2023-03-20T16:21:36.937Z,97543.72
2023-03-20T16:24:06.977Z,97546.16
2023-03-20T16:26:36.609Z,97544.38
2023-03-20T16:29:03.648Z,97553.16
2023-03-20T16:31:34.243Z,97537.50
2023-03-20T16:34:02.667Z,97552.94
2023-03-20T16:36:31.068Z,97548.72
2023-03-20T16:38:59.085Z,97547.50
2023-03-20T16:41:29.500Z,97549.22
2023-03-20T16:43:56.962Z,97554.00
2023-03-20T16:46:25.020Z,97551.00
2023-03-20T16:48:52.463Z,97557.47
2023-03-20T16:51:24.463Z,97559.75
2023-03-20T16:53:53.992Z,97558.78
2023-03-20T16:56:24.194Z,97561.22
2023-03-20T16:58:50.835Z,97570.06
2023-03-20T17:01:22.191Z,97574.38
2023-03-20T17:03:48.714Z,97566.25
2023-03-20T17:06:25.549Z,97578.97
2023-03-20T17:08:53.706Z,97574.63
2023-03-20T17:11:34.239Z,97581.72
2023-03-20T17:14:01.230Z,97578.56
2023-03-20T17:16:27.679Z,97578.94
2023-03-20T17:19:01.730Z,97574.03
2023-03-20T17:21:28.497Z,97583.13
2023-03-20T17:23:55.058Z,97581.81
2023-03-20T17:26:21.629Z,97587.31
2023-03-20T17:28:48.116Z,97593.59
2023-03-20T17:31:15.453Z,97586.31
2023-03-20T17:33:41.935Z,97580.56
2023-03-20T17:36:16.705Z,97592.75
2023-03-20T17:38:43.146Z,97593.09
2023-03-20T17:41:17.351Z,97591.78
2023-03-20T17:43:44.435Z,97589.88
2023-03-20T17:46:20.978Z,97585.97
2023-03-20T17:48:48.360Z,97584.59
2023-03-20T17:51:14.871Z,97590.09
2023-03-20T17:53:41.383Z,97590.41
2023-03-20T17:56:11.656Z,97589.75
2023-03-20T17:58:39.312Z,97590.41
2023-03-20T18:01:06.973Z,97594.13
2023-03-20T18:03:33.510Z,97590.59
2023-03-20T18:06:00.044Z,97587.47
2023-03-20T18:08:26.644Z,97593.94
2023-03-20T18:10:53.443Z,97600.31
2023-03-20T18:13:21.195Z,97603.03
2023-03-20T18:15:49.528Z,97598.16
2023-03-20T18:18:16.205Z,97605.94
2023-03-20T18:20:43.000Z,97596.88
2023-03-20T18:23:09.972Z,97595.81
2023-03-20T18:25:36.465Z,97604.13
2023-03-20T18:28:04.753Z,97600.41
2023-03-20T18:30:36.561Z,97605.66
2023-03-20T18:33:03.975Z,97603.81
2023-03-20T18:35:30.719Z,97598.88
2023-03-20T18:37:57.328Z,97606.50
2023-03-20T18:40:27.709Z,97612.78
2023-03-20T18:42:54.873Z,97610.38
2023-03-20T18:45:22.096Z,97613.09
2023-03-20T18:47:49.190Z,97608.69
2023-03-20T18:50:21.795Z,97613.06
2023-03-20T18:52:48.358Z,97608.69
2023-03-20T18:55:14.882Z,97613.06
2023-03-20T18:57:43.160Z,97611.72
2023-03-20T19:00:16.906Z,97613.41
2023-03-20T19:02:43.339Z,97610.00
2023-03-20T19:05:11.407Z,97607.31
2023-03-20T19:07:37.858Z,97611.31
2023-03-20T19:10:04.797Z,97605.22
2023-03-20T19:12:31.585Z,97611.44
2023-03-20T19:14:57.991Z,97609.78
2023-03-20T19:17:24.473Z,97614.19
2023-03-20T19:19:50.900Z,97612.69
2023-03-20T19:22:28.968Z,97614.34
2023-03-20T19:24:56.142Z,97616.41
2023-03-20T19:27:22.595Z,97621.63
2023-03-20T19:29:49.471Z,97612.03
2023-03-20T19:32:15.897Z,97618.41
2023-03-20T19:37:28.846Z,97617.47
2023-03-20T19:39:55.307Z,97607.59
2023-03-20T19:42:50.773Z,97615.72
2023-03-20T19:45:08.670Z,97624.84
2023-03-20T19:47:35.132Z,97611.00
2023-03-20T19:50:01.749Z,97625.66
2023-03-20T19:52:31.745Z,97616.34
2023-03-20T19:55:02.982Z,97620.34
2023-03-20T19:57:30.246Z,97616.63
2023-03-20T20:00:32.253Z,97614.97
2023-03-20T20:02:43.352Z,97623.03
2023-03-20T20:05:22.140Z,97620.81
2023-03-20T20:08:16.988Z,97617.66
2023-03-20T20:10:40.192Z,97622.16
2023-03-20T20:13:06.815Z,97620.28
2023-03-20T20:15:34.750Z,97621.91
2023-03-20T20:18:01.341Z,97618.84
2023-03-20T20:20:29.896Z,97622.44
2023-03-20T20:22:56.445Z,97623.06
2023-03-20T20:25:23.058Z,97617.31
2023-03-20T20:27:49.557Z,97626.34
2023-03-20T20:30:17.403Z,97617.38
2023-03-20T20:32:44.720Z,97628.03
2023-03-20T20:38:33.567Z,97630.06
2023-03-20T20:40:47.721Z,97628.84
2023-03-20T20:43:39.079Z,97629.69
2023-03-20T20:46:01.164Z,97626.78
2023-03-20T20:48:27.657Z,97630.00
2023-03-20T20:50:58.907Z,97629.53
2023-03-20T20:53:25.975Z,97632.28
2023-03-20T20:55:52.412Z,97625.22
2023-03-20T20:58:18.848Z,97618.88
2023-03-20T21:00:52.562Z,97624.88
2023-03-20T21:03:21.286Z,97629.72
2023-03-20T21:05:47.805Z,97627.03
2023-03-20T21:08:15.189Z,97636.00
2023-03-20T21:10:43.973Z,97638.00
2023-03-20T21:13:10.557Z,97634.31
2023-03-20T21:15:37.437Z,97645.69
2023-03-20T21:18:04.195Z,97642.28
2023-03-20T21:20:31.298Z,97646.28
2023-03-20T21:22:58.250Z,97651.13
2023-03-20T21:25:38.657Z,97641.84
2023-03-20T21:28:06.680Z,97646.91
2023-03-20T21:30:33.639Z,97647.50
2023-03-20T21:33:00.289Z,97653.19
2023-03-20T21:35:27.193Z,97651.25
2023-03-20T21:40:40.248Z,97651.81
2023-03-20T21:43:07.297Z,97639.06
2023-03-20T22:02:22.513Z,97649.88
2023-03-20T22:14:12.696Z,97651.56
2023-03-20T22:27:49.301Z,97651.88
2023-03-20T22:33:22.713Z,97660.59
2023-03-20T22:41:57.112Z,97648.16
2023-03-20T22:46:47.975Z,97645.06
2023-03-20T22:49:14.737Z,97648.13
2023-03-20T22:51:57.502Z,97645.84
2023-03-20T22:54:27.625Z,97651.16
2023-03-20T22:56:54.114Z,97649.69
2023-03-20T22:59:20.569Z,97651.75
2023-03-20T23:01:46.982Z,97649.41
2023-03-20T23:04:13.655Z,97650.16
2023-03-20T23:06:40.975Z,97658.78
2023-03-20T23:09:15.296Z,97657.56
2023-03-20T23:11:42.180Z,97655.06
2023-03-20T23:14:18.210Z,97658.19
2023-03-20T23:16:46.591Z,97655.66
2023-03-20T23:19:13.164Z,97653.91
2023-03-20T23:21:39.597Z,97655.91
2023-03-20T23:24:06.204Z,97653.28
2023-03-20T23:26:32.665Z,97653.81
2023-03-20T23:28:59.353Z,97649.47
2023-03-20T23:31:26.561Z,97647.31
2023-03-20T23:33:54.829Z,97653.50
2023-03-20T23:36:34.989Z,97652.44
2023-03-20T23:39:02.692Z,97647.66
2023-03-20T23:41:54.034Z,97647.66
2023-03-20T23:44:15.787Z,97646.69
2023-03-20T23:46:42.367Z,97653.88
2023-03-20T23:49:08.865Z,97647.38
2023-03-20T23:51:35.415Z,97646.28
2023-03-20T23:54:01.893Z,97648.22
2023-03-20T23:56:28.539Z,97645.25
2023-03-20T23:59:01.168Z,97647.31
